Time;durP1;ratioP1;P1;durP2;ratioP2;P2;SDS_P1;SDS_P2;PMS_P1;PMS_P2;Temp;Humidity;BMP_temperature;BMP_pressure;BME280_temperature;BME280_humidity;BME280_pressure;Samples;Min_cycle;Max_cycle;Signal;HPM_P1;HPM_P2
2021/11/02 00:00:23;;;;;;;7.70;7.20;;;7.50;99.90;;;;;;5051529;28;20201;-67
2021/11/02 00:02:49;;;;;;;7.87;7.47;;;7.50;99.90;;;;;;5051357;28;20175;-68
2021/11/02 00:05:15;;;;;;;9.20;7.47;;;7.60;99.90;;;;;;5052158;28;20196;-66
2021/11/02 00:07:41;;;;;;;7.87;7.47;;;7.60;99.90;;;;;;5050581;28;20224;-66
2021/11/02 00:10:07;;;;;;;8.37;7.67;;;7.70;99.90;;;;;;5051522;28;20202;-67
2021/11/02 00:12:34;;;;;;;7.73;7.23;;;7.60;99.90;;;;;;5050057;28;20206;-67
2021/11/02 00:14:59;;;;;;;8.17;7.67;;;7.60;99.90;;;;;;5042523;28;20262;-68
2021/11/02 00:17:28;;;;;;;8.83;6.97;;;7.60;99.90;;;;;;5030688;28;20254;-66
2021/11/02 00:20:01;;;;;;;8.13;7.53;;;7.60;99.90;;;;;;5043298;28;20573;-66
2021/11/02 00:22:28;;;;;;;7.40;6.80;;;7.60;99.90;;;;;;5050883;28;20540;-66
2021/11/02 00:27:26;;;;;;;8.27;7.43;;;7.50;99.90;;;;;;5051987;28;20488;-67
2021/11/02 00:29:54;;;;;;;7.73;7.23;;;7.50;99.90;;;;;;5050927;28;20665;-66
2021/11/02 00:32:21;;;;;;;8.43;7.93;;;7.50;99.90;;;;;;5051352;28;20167;-68
2021/11/02 00:34:46;;;;;;;7.50;6.90;;;7.50;99.90;;;;;;5050074;28;20228;-67
2021/11/02 00:37:12;;;;;;;7.90;7.40;;;7.40;99.90;;;;;;5051229;28;20171;-67
2021/11/02 00:39:38;;;;;;;7.70;7.30;;;7.40;99.90;;;;;;5049911;28;20340;-66
2021/11/02 00:42:04;;;;;;;7.97;7.33;;;7.40;99.90;;;;;;5051409;28;20269;-67
2021/11/02 00:44:30;;;;;;;7.30;6.80;;;7.40;99.90;;;;;;5051403;28;20570;-65
2021/11/02 00:46:56;;;;;;;6.70;6.40;;;7.30;99.90;;;;;;5049853;28;20183;-67
2021/11/02 00:49:24;;;;;;;7.07;6.57;;;7.30;99.90;;;;;;5050886;28;20272;-68
2021/11/02 00:51:52;;;;;;;7.30;6.90;;;7.20;99.90;;;;;;5048870;28;20198;-67
2021/11/02 00:54:19;;;;;;;7.73;7.13;;;7.20;99.90;;;;;;5051475;28;20163;-67
2021/11/02 00:56:45;;;;;;;7.50;7.07;;;7.10;99.90;;;;;;5050919;28;20205;-66
2021/11/02 00:59:11;;;;;;;7.50;7.10;;;7.00;99.90;;;;;;5051062;28;20571;-66
2021/11/02 01:01:38;;;;;;;8.20;7.70;;;7.00;99.90;;;;;;5051052;28;20549;-67
2021/11/02 01:04:05;;;;;;;7.90;7.40;;;7.00;99.90;;;;;;5051465;28;20174;-67
2021/11/02 01:06:33;;;;;;;8.37;7.60;;;6.90;99.90;;;;;;5049744;28;20201;-66
2021/11/02 01:08:59;;;;;;;7.27;6.97;;;6.90;99.90;;;;;;5050781;28;20195;-66
2021/11/02 01:11:25;;;;;;;7.63;7.23;;;6.90;99.90;;;;;;5051124;28;20285;-67
2021/11/02 01:13:52;;;;;;;7.30;6.90;;;6.80;99.90;;;;;;5050609;28;20179;-66
2021/11/02 01:16:19;;;;;;;6.93;6.63;;;6.70;99.90;;;;;;5051069;28;20183;-67
2021/11/02 01:18:45;;;;;;;8.37;7.87;;;6.60;99.90;;;;;;5050485;28;20190;-66
2021/11/02 01:21:11;;;;;;;6.33;6.03;;;6.50;99.90;;;;;;5051112;28;20312;-67
2021/11/02 01:23:36;;;;;;;6.60;6.30;;;6.40;99.90;;;;;;5051151;28;20179;-67
2021/11/02 01:26:02;;;;;;;7.10;6.70;;;6.40;99.90;;;;;;5050872;28;20178;-67
2021/11/02 01:28:28;;;;;;;7.23;6.77;;;6.30;99.90;;;;;;5050855;28;20179;-66
2021/11/02 01:30:54;;;;;;;6.90;6.50;;;6.20;99.90;;;;;;5049855;28;20203;-67
2021/11/02 01:33:20;;;;;;;7.60;7.20;;;6.10;99.90;;;;;;5050644;28;20651;-66
2021/11/02 01:35:45;;;;;;;7.53;6.83;;;6.10;99.90;;;;;;5050645;28;20170;-66
2021/11/02 01:38:12;;;;;;;7.47;7.07;;;6.10;99.90;;;;;;5050303;28;20595;-66
2021/11/02 01:40:38;;;;;;;8.40;8.00;;;6.10;99.90;;;;;;5050944;28;20166;-66
2021/11/02 01:43:04;;;;;;;7.63;7.13;;;6.10;99.90;;;;;;5050663;28;20175;-66
2021/11/02 01:45:30;;;;;;;7.50;7.10;;;6.00;99.90;;;;;;5051172;28;20189;-66
2021/11/02 01:47:56;;;;;;;7.67;7.17;;;6.00;99.90;;;;;;5050720;28;20237;-66
2021/11/02 01:50:22;;;;;;;8.03;7.47;;;5.90;99.90;;;;;;5050464;28;20207;-66
2021/11/02 01:52:48;;;;;;;7.03;6.60;;;5.90;99.90;;;;;;5050608;28;20656;-66
2021/11/02 01:55:16;;;;;;;7.37;6.97;;;5.90;99.90;;;;;;5050742;28;20163;-66
2021/11/02 01:57:44;;;;;;;7.10;6.70;;;5.90;99.90;;;;;;5050382;28;20182;-66
2021/11/02 02:00:12;;;;;;;6.80;6.50;;;5.90;99.90;;;;;;5050459;28;20201;-66
2021/11/02 02:03:15;;;;;;;8.00;7.60;;;5.90;99.90;;;;;;5051855;28;20549;-66
2021/11/02 02:06:25;;;;;;;8.30;7.90;;;5.80;99.90;;;;;;5054018;28;20182;-66
2021/11/02 02:09:09;;;;;;;9.47;8.77;;;5.80;99.90;;;;;;4972899;28;20243;-66
2021/11/02 02:12:03;;;;;;;8.50;8.00;;;5.70;99.90;;;;;;4972648;28;20206;-66
2021/11/02 02:14:52;;;;;;;8.27;7.87;;;5.70;99.90;;;;;;5035679;28;20213;-66
2021/11/02 02:17:22;;;;;;;8.20;7.50;;;5.60;99.90;;;;;;5052506;28;20171;-66
2021/11/02 02:20:09;;;;;;;7.90;7.20;;;5.60;99.90;;;;;;5053646;28;20236;-66
2021/11/02 02:23:07;;;;;;;7.73;6.83;;;5.50;99.90;;;;;;5053874;28;20190;-66
2021/11/02 02:25:45;;;;;;;7.57;7.17;;;5.50;99.90;;;;;;5053933;28;20166;-66
2021/11/02 02:28:29;;;;;;;7.80;7.40;;;5.50;99.90;;;;;;5034313;28;20435;-66
2021/11/02 02:31:00;;;;;;;8.47;8.03;;;5.50;99.90;;;;;;5039241;28;20618;-66
2021/11/02 02:33:29;;;;;;;8.07;7.50;;;5.50;99.90;;;;;;5053973;28;20182;-66
2021/11/02 02:35:56;;;;;;;7.73;7.23;;;5.50;99.90;;;;;;5052423;28;20175;-66
2021/11/02 02:38:24;;;;;;;7.33;6.97;;;5.50;99.90;;;;;;5053888;28;20698;-66
2021/11/02 02:40:51;;;;;;;8.23;7.73;;;5.50;99.90;;;;;;5053144;28;20175;-66
2021/11/02 02:43:19;;;;;;;7.77;7.23;;;5.60;99.90;;;;;;5053940;28;20218;-66
2021/11/02 02:45:46;;;;;;;7.70;7.30;;;5.50;99.90;;;;;;5053436;28;20265;-66
2021/11/02 02:48:14;;;;;;;7.80;7.40;;;5.50;99.90;;;;;;5052478;28;20175;-66
2021/11/02 02:50:41;;;;;;;7.83;7.43;;;5.40;99.90;;;;;;5052911;28;20586;-66
2021/11/02 02:53:07;;;;;;;7.67;7.27;;;5.40;99.90;;;;;;5054028;28;20209;-66
2021/11/02 02:55:34;;;;;;;7.13;6.67;;;5.50;99.90;;;;;;5052377;28;20199;-66
2021/11/02 02:58:01;;;;;;;6.63;6.33;;;5.50;99.90;;;;;;5053011;28;20179;-65
2021/11/02 03:00:27;;;;;;;6.83;6.53;;;5.60;99.90;;;;;;5053182;28;20594;-66
2021/11/02 03:02:55;;;;;;;7.13;6.80;;;5.60;99.90;;;;;;5053463;28;20189;-66
2021/11/02 03:05:24;;;;;;;7.10;6.70;;;5.60;99.90;;;;;;5053420;28;20181;-66
2021/11/02 03:07:54;;;;;;;7.27;6.87;;;5.60;99.90;;;;;;5053382;28;20646;-66
2021/11/02 03:10:21;;;;;;;7.50;7.10;;;5.60;99.90;;;;;;5052839;28;20198;-66
2021/11/02 03:12:49;;;;;;;7.90;7.50;;;5.60;99.90;;;;;;5053049;28;20171;-66
2021/11/02 03:58:47;;;;;;;7.37;7.00;;;5.80;99.90;;;;;;5032527;28;20178;-66
2021/11/02 04:29:46;;;;;;;6.93;6.63;;;5.90;99.90;;;;;;4989996;28;20196;-67
2021/11/02 04:32:13;;;;;;;7.20;6.80;;;5.80;99.90;;;;;;4988927;28;20221;-67
2021/11/02 05:51:23;;;;;;;8.37;7.67;;;5.60;99.90;;;;;;5054332;28;20548;-66
2021/11/02 05:54:08;;;;;;;7.53;6.83;;;5.70;99.90;;;;;;5053676;28;20229;-66
2021/11/02 05:59:13;;;;;;;8.00;7.37;;;5.70;99.90;;;;;;5053448;28;20567;-66
2021/11/02 06:06:56;;;;;;;8.37;7.77;;;5.70;99.90;;;;;;5054393;28;20170;-66
2021/11/02 06:09:35;;;;;;;7.67;7.27;;;5.70;99.90;;;;;;5053793;28;20586;-66
2021/11/02 06:29:02;;;;;;;7.70;7.30;;;5.70;99.90;;;;;;5053111;28;20252;-67
2021/11/02 06:31:39;;;;;;;8.10;7.57;;;5.80;99.90;;;;;;5054074;28;20733;-67
2021/11/02 06:39:40;;;;;;;8.60;7.80;;;6.10;99.90;;;;;;5053893;28;20191;-66
2021/11/02 06:48:21;;;;;;;7.87;7.37;;;6.40;99.90;;;;;;5019527;28;20734;-67
2021/11/02 06:54:11;;;;;;;7.40;7.00;;;6.50;99.90;;;;;;5047354;28;20201;-67
2021/11/02 07:11:00;;;;;;;8.10;7.50;;;6.90;99.90;;;;;;5038450;28;20194;-67
2021/11/02 07:17:24;;;;;;;8.03;7.63;;;7.10;99.90;;;;;;5051758;28;20662;-68
2021/11/02 08:47:09;;;;;;;6.87;6.37;;;10.50;99.90;;;;;;5048605;28;20550;-68
2021/11/02 08:49:40;;;;;;;6.97;6.57;;;10.60;99.90;;;;;;5050132;28;20488;-68
2021/11/02 08:52:06;;;;;;;7.03;6.53;;;10.60;99.90;;;;;;5039735;28;20203;-68
2021/11/02 08:54:36;;;;;;;6.90;6.60;;;10.70;99.90;;;;;;5040912;28;20226;-67
2021/11/02 08:57:02;;;;;;;7.30;6.90;;;10.70;99.90;;;;;;5049411;28;20260;-67
2021/11/02 08:59:28;;;;;;;7.17;6.67;;;10.60;99.90;;;;;;5049353;28;20668;-67
2021/11/02 09:01:57;;;;;;;6.50;6.20;;;10.60;99.90;;;;;;5051052;28;20221;-67
2021/11/02 09:04:29;;;;;;;6.83;6.53;;;10.40;99.90;;;;;;5049679;28;20187;-68
2021/11/02 09:06:57;;;;;;;7.10;6.70;;;10.30;99.90;;;;;;5050632;28;20602;-68
2021/11/02 09:09:23;;;;;;;7.03;6.60;;;10.10;99.90;;;;;;5050733;28;20208;-68
2021/11/02 09:11:51;;;;;;;6.63;6.33;;;10.00;99.90;;;;;;5048694;28;20297;-69
2021/11/02 09:14:17;;;;;;;7.17;6.77;;;10.00;99.90;;;;;;5055066;28;20174;-67
2021/11/02 09:16:46;;;;;;;7.13;6.60;;;9.80;99.90;;;;;;5053057;28;20178;-68
2021/11/02 09:19:13;;;;;;;7.27;6.87;;;9.70;99.90;;;;;;5054559;28;20281;-66
2021/11/02 09:21:39;;;;;;;7.93;7.50;;;9.50;99.90;;;;;;5054869;28;20179;-68
2021/11/02 09:24:06;;;;;;;7.63;7.00;;;9.30;99.90;;;;;;5055140;28;20262;-67
2021/11/02 09:26:33;;;;;;;8.00;7.60;;;9.20;99.90;;;;;;5055009;28;20662;-68
2021/11/02 09:29:04;;;;;;;9.23;8.63;;;9.10;99.90;;;;;;5052241;28;20267;-68
2021/11/02 09:31:32;;;;;;;7.10;6.70;;;9.10;99.90;;;;;;5054775;28;20243;-68
2021/11/02 09:33:58;;;;;;;7.87;7.37;;;9.10;99.90;;;;;;5054577;28;20182;-68
2021/11/02 09:36:28;;;;;;;6.50;6.20;;;9.20;99.90;;;;;;5055165;28;20228;-68
2021/11/02 09:39:02;;;;;;;6.90;6.43;;;9.20;99.90;;;;;;5052908;28;20198;-68
2021/11/02 09:41:38;;;;;;;7.03;6.63;;;9.30;99.90;;;;;;5053681;28;20212;-67
2021/11/02 09:44:11;;;;;;;6.93;6.40;;;9.40;99.90;;;;;;5052500;28;20636;-68
2021/11/02 09:47:14;;;;;;;8.40;7.70;;;9.40;99.90;;;;;;5054723;28;20183;-67
2021/11/02 09:49:43;;;;;;;7.73;7.23;;;9.40;99.90;;;;;;5035595;28;20345;-67
2021/11/02 09:52:17;;;;;;;7.50;6.90;;;9.40;99.90;;;;;;5053298;28;20211;-67
2021/11/02 09:54:52;;;;;;;7.67;7.27;;;9.30;99.90;;;;;;5053940;28;20636;-67
2021/11/02 09:57:36;;;;;;;7.70;7.20;;;9.30;99.90;;;;;;5054406;28;20593;-67
2021/11/02 10:00:37;;;;;;;8.97;8.37;;;9.30;99.90;;;;;;5052500;28;20190;-67
2021/11/02 10:03:34;;;;;;;8.63;7.83;;;9.30;99.90;;;;;;5052872;28;20178;-67
2021/11/02 10:06:23;;;;;;;7.60;7.10;;;9.40;99.90;;;;;;5053784;28;20190;-67
2021/11/02 10:08:53;;;;;;;8.37;7.67;;;9.30;99.90;;;;;;5054062;28;20240;-67
2021/11/02 10:11:43;;;;;;;7.60;7.10;;;9.40;99.90;;;;;;5053506;28;20716;-67
2021/11/02 10:14:46;;;;;;;7.53;7.07;;;9.40;99.90;;;;;;5047773;28;20183;-67
2021/11/02 10:17:44;;;;;;;7.93;7.30;;;9.50;99.90;;;;;;5009957;28;20245;-67
2021/11/02 10:20:34;;;;;;;7.77;7.00;;;9.50;99.90;;;;;;5032689;28;20214;-67
2021/11/02 10:23:24;;;;;;;8.53;7.93;;;9.50;99.90;;;;;;5046900;28;20625;-67
2021/11/02 10:26:15;;;;;;;7.63;7.03;;;9.50;99.90;;;;;;5048649;28;20184;-67
2021/11/02 10:29:17;;;;;;;7.63;6.90;;;9.50;99.90;;;;;;5049313;28;20194;-67
2021/11/02 10:32:10;;;;;;;7.93;7.33;;;9.50;99.90;;;;;;5033598;28;20244;-67
2021/11/02 10:34:42;;;;;;;7.93;7.53;;;9.50;99.90;;;;;;5044276;28;20187;-66
2021/11/02 10:37:30;;;;;;;8.43;7.33;;;9.50;99.90;;;;;;5052293;28;20544;-67
2021/11/02 10:40:17;;;;;;;7.13;6.63;;;9.60;99.90;;;;;;5053413;28;20206;-67
2021/11/02 10:43:13;;;;;;;6.77;6.40;;;9.60;99.90;;;;;;5053165;28;20174;-67
2021/11/02 10:45:52;;;;;;;7.10;6.43;;;9.60;99.90;;;;;;5052250;28;20210;-67
2021/11/02 10:48:23;;;;;;;6.83;6.53;;;9.70;99.90;;;;;;5053236;28;20171;-66
2021/11/02 10:50:49;;;;;;;6.50;6.20;;;9.70;99.90;;;;;;5033208;28;20614;-66
2021/11/02 10:53:32;;;;;;;6.70;6.20;;;9.80;99.90;;;;;;5053212;28;20208;-67
2021/11/02 10:56:20;;;;;;;6.80;6.40;;;9.80;99.90;;;;;;5053245;28;20178;-67
2021/11/02 10:58:49;;;;;;;7.27;6.77;;;9.90;99.90;;;;;;5051640;28;20198;-67
2021/11/02 11:01:16;;;;;;;7.93;7.47;;;10.00;99.90;;;;;;5052805;28;20226;-67
2021/11/02 11:03:43;;;;;;;7.50;7.10;;;10.10;99.90;;;;;;5053416;28;20550;-67
2021/11/02 11:06:15;;;;;;;6.90;6.50;;;10.20;99.90;;;;;;5052799;28;20170;-68
2021/11/02 11:08:45;;;;;;;6.97;6.57;;;10.30;99.90;;;;;;5052884;28;20206;-67
2021/11/02 11:11:17;;;;;;;7.07;6.67;;;10.40;99.90;;;;;;5052543;28;20269;-67
2021/11/02 11:13:48;;;;;;;7.10;6.70;;;10.40;99.90;;;;;;5053283;28;20259;-67
2021/11/02 11:16:20;;;;;;;7.70;7.23;;;10.40;99.90;;;;;;5052970;28;20193;-67
2021/11/02 11:18:48;;;;;;;6.90;6.50;;;10.40;99.90;;;;;;5051408;28;20278;-67
2021/11/02 11:21:15;;;;;;;6.90;6.50;;;10.50;99.90;;;;;;5052622;28;20179;-67
2021/11/02 11:23:43;;;;;;;7.07;6.50;;;10.60;99.90;;;;;;5051497;28;20182;-67
2021/11/02 11:26:09;;;;;;;6.47;6.10;;;10.60;99.90;;;;;;5053158;28;20183;-67
2021/11/02 11:28:40;;;;;;;6.63;6.23;;;10.70;99.90;;;;;;5051111;28;20226;-67
2021/11/02 11:31:07;;;;;;;6.63;6.13;;;10.90;99.90;;;;;;5052472;28;20574;-67
2021/11/02 11:33:33;;;;;;;6.40;6.10;;;11.00;99.90;;;;;;5052175;28;20278;-67
2021/11/02 11:36:06;;;;;;;6.60;6.30;;;11.10;99.90;;;;;;5051424;28;20190;-67
2021/11/02 11:38:42;;;;;;;6.97;6.47;;;11.10;99.90;;;;;;5052439;28;20206;-67
2021/11/02 11:41:10;;;;;;;7.13;6.70;;;11.20;99.90;;;;;;5051895;28;20192;-67
2021/11/02 11:43:40;;;;;;;6.63;6.10;;;11.30;99.90;;;;;;5052214;28;20190;-67
2021/11/02 11:46:06;;;;;;;6.80;6.50;;;11.30;99.90;;;;;;5050340;28;20182;-67
2021/11/02 11:48:41;;;;;;;6.70;6.23;;;11.30;99.90;;;;;;5051734;28;20210;-67
2021/11/02 11:51:18;;;;;;;7.10;6.70;;;11.20;99.90;;;;;;5050759;28;20225;-67
2021/11/02 11:53:44;;;;;;;5.80;5.50;;;11.20;99.90;;;;;;5051942;28;20181;-67
2021/11/02 11:56:14;;;;;;;7.00;6.60;;;11.10;99.90;;;;;;5052643;28;20570;-67
2021/11/02 11:58:48;;;;;;;7.17;6.80;;;11.20;99.90;;;;;;5050265;28;20234;-67
2021/11/02 12:01:52;;;;;;;6.83;6.53;;;11.20;99.90;;;;;;5051491;28;20651;-67
2021/11/02 12:04:33;;;;;;;6.93;6.53;;;11.10;99.90;;;;;;5035920;28;20241;-67
2021/11/02 12:07:30;;;;;;;7.33;6.93;;;11.10;99.90;;;;;;5042557;28;20323;-67
2021/11/02 12:10:06;;;;;;;7.03;6.63;;;11.10;99.90;;;;;;5031779;28;20203;-67
2021/11/02 12:12:35;;;;;;;6.30;5.90;;;11.20;99.90;;;;;;5050924;28;20554;-67
2021/11/02 12:15:07;;;;;;;6.90;6.50;;;11.50;99.90;;;;;;5051977;28;20183;-67
2021/11/02 12:17:39;;;;;;;6.77;6.37;;;11.80;99.90;;;;;;5050338;28;20233;-67
2021/11/02 12:20:09;;;;;;;6.60;6.10;;;12.40;99.90;;;;;;5051614;28;20187;-67
2021/11/02 12:22:49;;;;;;;6.00;5.70;;;12.70;99.90;;;;;;5050502;28;20177;-67
2021/11/02 12:25:22;;;;;;;6.43;6.10;;;12.80;99.90;;;;;;5048377;28;20182;-67
2021/11/02 12:27:48;;;;;;;5.67;5.37;;;12.80;99.90;;;;;;5051584;28;20671;-67
2021/11/02 12:30:18;;;;;;;6.77;6.37;;;12.90;99.90;;;;;;5051165;28;20229;-67
2021/11/02 12:32:46;;;;;;;7.17;6.57;;;13.00;99.90;;;;;;5051452;28;20167;-67
2021/11/02 12:35:29;;;;;;;6.90;6.40;;;12.90;99.90;;;;;;5049725;28;20348;-67
2021/11/02 12:37:58;;;;;;;6.73;6.33;;;12.90;99.90;;;;;;5030538;28;20195;-67
2021/11/02 12:40:36;;;;;;;6.10;5.77;;;12.80;99.90;;;;;;5048571;28;20202;-67
2021/11/02 12:43:02;;;;;;;6.57;6.17;;;12.60;99.90;;;;;;5051261;28;20163;-67
2021/11/02 12:45:34;;;;;;;6.00;5.70;;;12.50;99.90;;;;;;5051321;28;20229;-67
2021/11/02 12:48:05;;;;;;;7.03;5.90;;;12.30;99.90;;;;;;5051528;28;20167;-67
2021/11/02 12:50:37;;;;;;;7.03;6.43;;;12.20;99.90;;;;;;5049305;28;20214;-66
2021/11/02 12:53:07;;;;;;;6.80;6.40;;;12.20;99.90;;;;;;5049873;28;20179;-66
2021/11/02 12:55:34;;;;;;;6.67;6.20;;;12.50;99.90;;;;;;5051030;28;20178;-67
2021/11/02 12:58:17;;;;;;;6.60;6.20;;;12.60;99.90;;;;;;5051013;28;20186;-66
2021/11/02 13:00:50;;;;;;;6.60;6.20;;;12.70;99.90;;;;;;5049608;28;20170;-66
2021/11/02 13:03:25;;;;;;;7.20;6.60;;;12.70;99.90;;;;;;5051061;28;20178;-66
2021/11/02 13:06:08;;;;;;;6.43;6.10;;;12.50;99.90;;;;;;5040790;28;20190;-66
2021/11/02 13:08:42;;;;;;;6.67;6.17;;;12.30;99.90;;;;;;5047856;28;20543;-66
2021/11/02 13:11:18;;;;;;;6.50;6.10;;;12.00;99.90;;;;;;5050807;28;20340;-66
2021/11/02 13:14:07;;;;;;;6.73;6.33;;;11.70;99.90;;;;;;5049693;28;20178;-66
2021/11/02 13:16:52;;;;;;;6.87;6.47;;;11.50;99.90;;;;;;5051120;28;20171;-66
2021/11/02 13:19:18;;;;;;;6.67;6.30;;;11.30;99.90;;;;;;5050667;28;20203;-66
2021/11/02 13:21:45;;;;;;;7.10;6.73;;;11.10;99.90;;;;;;5050986;28;20663;-66
2021/11/02 13:24:13;;;;;;;6.40;6.00;;;11.00;99.90;;;;;;5051166;28;20585;-66
2021/11/02 13:26:45;;;;;;;7.30;6.80;;;10.80;99.90;;;;;;5050991;28;20178;-66
2021/11/02 13:29:20;;;;;;;7.67;7.17;;;10.80;99.90;;;;;;5029426;28;20685;-66
2021/11/02 13:31:48;;;;;;;7.23;6.80;;;10.60;99.90;;;;;;5031122;28;20256;-66
2021/11/02 13:34:30;;;;;;;7.23;6.63;;;10.60;99.90;;;;;;5037759;28;20179;-66
2021/11/02 13:37:10;;;;;;;7.77;7.27;;;10.50;99.90;;;;;;5051028;28;20179;-66
2021/11/02 13:39:55;;;;;;;7.77;7.23;;;10.50;99.90;;;;;;5050284;28;20285;-66
2021/11/02 13:42:49;;;;;;;7.80;7.20;;;10.40;99.90;;;;;;5050809;28;20205;-66
2021/11/02 13:45:18;;;;;;;7.63;6.93;;;10.40;99.90;;;;;;5050996;28;20175;-66
2021/11/02 13:47:44;;;;;;;8.37;7.63;;;10.40;99.90;;;;;;5050511;28;20205;-66
2021/11/02 13:50:11;;;;;;;7.20;6.60;;;10.30;99.90;;;;;;5050234;28;20210;-66
2021/11/02 13:52:37;;;;;;;7.20;6.70;;;10.30;99.90;;;;;;5049255;28;20185;-66
2021/11/02 13:55:03;;;;;;;6.90;6.50;;;10.30;99.90;;;;;;5050499;28;20187;-66
2021/11/02 13:57:29;;;;;;;7.63;7.07;;;10.20;99.90;;;;;;5049145;28;20178;-66
2021/11/02 13:59:55;;;;;;;7.27;6.77;;;10.20;99.90;;;;;;5053682;28;20266;-66
2021/11/02 14:02:22;;;;;;;7.37;6.97;;;10.20;99.90;;;;;;5053943;28;20262;-66
2021/11/02 14:04:51;;;;;;;7.60;7.00;;;10.10;99.90;;;;;;5054053;28;20214;-66
2021/11/02 14:07:18;;;;;;;8.17;7.57;;;10.10;99.90;;;;;;5052848;28;20183;-66
2021/11/02 14:09:58;;;;;;;7.27;6.80;;;10.10;99.90;;;;;;5053049;28;20198;-66
2021/11/02 14:12:27;;;;;;;7.90;7.30;;;10.10;99.90;;;;;;5035850;28;20208;-66
2021/11/02 14:15:16;;;;;;;8.03;7.40;;;10.20;99.90;;;;;;5048409;28;20586;-66
2021/11/02 14:17:52;;;;;;;7.10;6.67;;;10.30;99.90;;;;;;5049582;28;20179;-66
2021/11/02 14:20:40;;;;;;;6.47;6.17;;;10.40;99.90;;;;;;5033948;28;20190;-66
2021/11/02 14:23:16;;;;;;;7.53;6.70;;;10.60;99.90;;;;;;5032921;28;20175;-67
2021/11/02 14:25:42;;;;;;;6.40;6.10;;;10.80;99.90;;;;;;5033433;28;20512;-67
2021/11/02 14:28:10;;;;;;;6.60;6.20;;;10.90;99.90;;;;;;5034243;28;20254;-66
2021/11/02 14:30:39;;;;;;;6.47;6.17;;;10.90;99.90;;;;;;5033956;28;20531;-66
2021/11/02 14:33:05;;;;;;;6.17;5.87;;;10.80;99.90;;;;;;5033971;28;20222;-66
2021/11/02 14:35:51;;;;;;;6.13;5.83;;;10.70;99.90;;;;;;5034102;28;20528;-66
2021/11/02 14:38:19;;;;;;;6.60;6.30;;;10.60;99.90;;;;;;5034123;28;20172;-66
2021/11/02 14:40:49;;;;;;;6.43;6.13;;;10.50;99.90;;;;;;5033598;28;20266;-66
2021/11/02 14:43:15;;;;;;;5.80;5.50;;;10.30;99.90;;;;;;5033801;28;20217;-66
2021/11/02 14:45:51;;;;;;;6.00;5.80;;;10.10;99.90;;;;;;5033825;28;20663;-66
2021/11/02 14:48:26;;;;;;;6.10;5.80;;;10.00;99.90;;;;;;5047048;28;20233;-66
2021/11/02 14:51:03;;;;;;;6.83;6.43;;;9.80;99.90;;;;;;5033348;28;20680;-66
2021/11/02 14:53:35;;;;;;;6.63;6.30;;;9.70;99.90;;;;;;5047489;28;20265;-66
2021/11/02 14:56:31;;;;;;;6.67;6.27;;;9.70;99.90;;;;;;5053365;28;20643;-66
2021/11/02 14:58:59;;;;;;;6.83;6.53;;;9.60;99.90;;;;;;5035868;28;20214;-66
2021/11/02 15:01:36;;;;;;;6.40;6.10;;;9.40;99.90;;;;;;5052989;28;20602;-67
2021/11/02 15:04:10;;;;;;;6.23;5.93;;;9.40;99.90;;;;;;5053370;28;20537;-66
2021/11/02 15:06:40;;;;;;;7.00;6.70;;;9.30;99.90;;;;;;5053499;28;20682;-67
2021/11/02 15:09:07;;;;;;;6.00;5.70;;;9.30;99.90;;;;;;5052616;28;20205;-67
2021/11/02 15:11:33;;;;;;;5.83;5.53;;;9.30;99.90;;;;;;5052089;28;20260;-66
2021/11/02 15:14:05;;;;;;;6.03;5.73;;;9.20;99.90;;;;;;5052618;28;20163;-66
2021/11/02 15:16:31;;;;;;;6.13;5.83;;;9.30;99.90;;;;;;5051958;28;20171;-67
2021/11/02 15:19:05;;;;;;;6.63;6.33;;;9.30;99.90;;;;;;5052475;28;20190;-67
2021/11/02 15:21:35;;;;;;;6.47;6.03;;;9.30;99.90;;;;;;5052987;28;20548;-67
2021/11/02 15:24:06;;;;;;;5.90;5.60;;;9.30;99.90;;;;;;5052855;28;20225;-66
2021/11/02 15:26:43;;;;;;;5.97;5.67;;;9.30;99.90;;;;;;5053096;28;20167;-66
2021/11/02 15:29:10;;;;;;;6.17;5.77;;;9.30;99.90;;;;;;5051474;28;20194;-66
2021/11/02 15:31:36;;;;;;;6.47;6.17;;;9.30;99.90;;;;;;5052465;28;20194;-67
2021/11/02 15:34:12;;;;;;;6.20;5.93;;;9.30;99.90;;;;;;5051187;28;20190;-67
2021/11/02 15:36:38;;;;;;;6.47;6.17;;;9.40;99.90;;;;;;5052689;28;20163;-66
2021/11/02 15:39:07;;;;;;;6.73;6.33;;;9.40;99.90;;;;;;5052048;28;20747;-67
2021/11/02 15:41:33;;;;;;;6.57;6.27;;;9.40;99.90;;;;;;5052655;28;20638;-67
2021/11/02 15:44:05;;;;;;;6.90;6.50;;;9.30;99.90;;;;;;5052344;28;20193;-66
2021/11/02 15:46:35;;;;;;;6.77;6.40;;;9.30;99.90;;;;;;5052625;28;20284;-66
2021/11/02 15:49:03;;;;;;;6.97;6.57;;;9.20;99.90;;;;;;5079008;22;20662;-69
2021/11/02 15:51:37;;;;;;;6.33;6.03;;;9.20;99.90;;;;;;5075011;28;20305;-68
2021/11/02 15:54:11;;;;;;;6.33;5.77;;;9.10;99.90;;;;;;5090197;28;20172;-68
2021/11/02 15:56:38;;;;;;;7.00;6.60;;;9.00;99.90;;;;;;5095545;28;20174;-67
2021/11/02 15:59:06;;;;;;;6.03;5.73;;;9.00;99.90;;;;;;5094371;28;20204;-67
2021/11/02 16:01:41;;;;;;;6.60;6.20;;;9.00;99.90;;;;;;5093034;28;20665;-69
2021/11/02 16:04:11;;;;;;;6.50;6.20;;;9.00;99.90;;;;;;5077356;28;20176;-68
2021/11/02 16:06:53;;;;;;;6.40;6.10;;;9.00;99.90;;;;;;5072538;28;20189;-66
2021/11/02 16:09:19;;;;;;;6.40;6.03;;;9.00;99.90;;;;;;5072004;28;20209;-67
2021/11/02 16:11:46;;;;;;;6.80;6.50;;;9.00;99.90;;;;;;5072235;28;20213;-69
2021/11/02 16:14:11;;;;;;;6.80;6.40;;;8.90;99.90;;;;;;5073632;28;20158;-67
2021/11/02 16:16:37;;;;;;;6.47;6.17;;;8.90;99.90;;;;;;5090066;28;20182;-67
2021/11/02 16:19:04;;;;;;;7.73;6.93;;;8.90;99.90;;;;;;5091973;28;20247;-68
2021/11/02 16:21:32;;;;;;;7.30;6.90;;;8.80;99.90;;;;;;5075750;28;20182;-67
2021/11/02 16:24:08;;;;;;;5.77;5.57;;;8.80;99.90;;;;;;5073143;28;20655;-68
2021/11/02 16:26:39;;;;;;;6.93;6.60;;;8.80;99.90;;;;;;5071860;28;20178;-68
2021/11/02 16:29:13;;;;;;;6.50;6.20;;;8.80;99.90;;;;;;5084872;28;20216;-66
2021/11/02 16:31:41;;;;;;;6.50;6.20;;;8.80;99.90;;;;;;5092681;28;20196;-67
2021/11/02 16:34:24;;;;;;;6.80;6.40;;;8.80;99.90;;;;;;5079892;28;20166;-68
2021/11/02 16:36:55;;;;;;;6.40;6.10;;;8.70;99.90;;;;;;5072046;28;20198;-68
2021/11/02 16:39:24;;;;;;;6.97;6.67;;;8.80;99.90;;;;;;5085937;28;20194;-67
2021/11/02 16:42:02;;;;;;;6.77;6.43;;;8.70;99.90;;;;;;5092600;28;20260;-67
2021/11/02 16:44:32;;;;;;;6.73;6.33;;;8.80;99.90;;;;;;5077604;28;20252;-68
2021/11/02 16:47:24;;;;;;;6.70;6.33;;;8.70;99.90;;;;;;5052394;28;20667;-68
2021/11/02 16:49:50;;;;;;;6.83;6.33;;;8.70;99.90;;;;;;5082522;28;20255;-68
2021/11/02 16:52:27;;;;;;;7.00;6.60;;;8.70;99.90;;;;;;5080577;28;20247;-68
2021/11/02 16:55:08;;;;;;;6.77;6.40;;;8.70;99.90;;;;;;5072191;28;20201;-68
2021/11/02 16:57:34;;;;;;;7.00;6.60;;;8.70;99.90;;;;;;5085509;28;20555;-68
2021/11/02 17:00:04;;;;;;;7.40;6.97;;;8.70;99.90;;;;;;5092435;28;20222;-69
2021/11/02 17:02:41;;;;;;;7.50;7.00;;;8.80;99.90;;;;;;5079982;28;20632;-69
2021/11/02 17:05:27;;;;;;;7.13;6.73;;;8.80;99.90;;;;;;5072057;28;20243;-66
2021/11/02 17:07:52;;;;;;;7.37;6.97;;;8.90;99.90;;;;;;5086381;28;20185;-69
2021/11/02 17:10:24;;;;;;;7.93;7.40;;;8.90;99.90;;;;;;5085903;28;20201;-68
2021/11/02 17:13:02;;;;;;;8.57;7.93;;;8.90;99.90;;;;;;5092353;28;20181;-68
2021/11/02 17:15:44;;;;;;;7.47;6.97;;;8.90;99.90;;;;;;5079709;28;20226;-69
2021/11/02 17:18:18;;;;;;;8.70;7.90;;;8.90;99.90;;;;;;5072313;28;20542;-69
2021/11/02 17:21:04;;;;;;;11.43;8.10;;;8.90;99.90;;;;;;5087381;28;20210;-68
2021/11/02 17:23:30;;;;;;;9.13;8.43;;;8.90;99.90;;;;;;5092730;28;20200;-69
2021/11/02 17:25:56;;;;;;;9.77;9.07;;;8.80;99.90;;;;;;5076535;28;20186;-68
2021/11/02 17:28:22;;;;;;;10.63;9.83;;;8.80;99.90;;;;;;5073380;28;20170;-69
2021/11/02 17:30:48;;;;;;;9.07;8.20;;;8.80;99.90;;;;;;5085279;28;20240;-68
2021/11/02 17:33:15;;;;;;;8.87;8.07;;;8.90;99.90;;;;;;5088109;28;20196;-68
2021/11/02 17:35:42;;;;;;;8.97;8.13;;;8.90;99.90;;;;;;5077211;28;20236;-67
2021/11/02 17:38:09;;;;;;;9.00;8.30;;;8.80;99.90;;;;;;5082419;28;20191;-68
2021/11/02 17:40:35;;;;;;;8.23;7.63;;;8.80;99.90;;;;;;5096534;28;20192;-69
2021/11/02 17:43:02;;;;;;;9.17;8.50;;;8.70;99.90;;;;;;5089977;28;20184;-68
2021/11/02 17:45:29;;;;;;;9.40;8.47;;;8.70;99.90;;;;;;5095163;28;20642;-68
2021/11/02 17:47:56;;;;;;;8.07;7.57;;;8.70;99.90;;;;;;5088256;28;20177;-68
2021/11/02 17:50:25;;;;;;;9.07;8.27;;;8.70;99.90;;;;;;5074569;28;20689;-67
2021/11/02 17:52:51;;;;;;;8.53;7.93;;;8.70;99.90;;;;;;5079712;28;20174;-68
2021/11/02 17:55:17;;;;;;;9.07;8.57;;;8.70;99.90;;;;;;5094885;28;20176;-68
2021/11/02 17:57:44;;;;;;;9.07;8.33;;;8.60;99.90;;;;;;5090943;28;20296;-67
2021/11/02 18:00:13;;;;;;;10.70;9.80;;;8.60;99.90;;;;;;5074298;28;20190;-68
2021/11/02 18:02:39;;;;;;;10.60;9.70;;;8.50;99.90;;;;;;5076439;28;20186;-68
2021/11/02 18:05:07;;;;;;;10.83;9.77;;;8.60;99.90;;;;;;5094854;28;20170;-68
2021/11/02 18:07:33;;;;;;;10.23;9.23;;;8.50;99.90;;;;;;5093456;28;20176;-68
2021/11/02 18:09:59;;;;;;;10.37;9.57;;;8.50;99.90;;;;;;5080437;28;20662;-68
2021/11/02 18:12:27;;;;;;;11.07;10.17;;;8.50;99.90;;;;;;5094655;28;20209;-68
2021/11/02 18:14:54;;;;;;;10.10;9.40;;;8.50;99.90;;;;;;5074927;28;20178;-67